createdAt,value
2022-10-14T00:00:00.986Z,7.63
2022-10-14T00:02:31.912Z,7.30
2022-10-14T00:05:01.720Z,8.30
2022-10-14T00:07:31.223Z,6.77
2022-10-14T00:10:00.542Z,6.40
2022-10-14T00:12:31.142Z,6.70
2022-10-14T00:15:00.587Z,6.50
2022-10-14T00:17:31.723Z,5.87
2022-10-14T00:20:02.239Z,7.90
2022-10-14T00:22:31.581Z,7.30
2022-10-14T00:25:00.889Z,6.17
2022-10-14T00:27:32.017Z,6.10
2022-10-14T00:30:04.414Z,5.77
2022-10-14T00:32:35.237Z,7.17
2022-10-14T00:35:06.749Z,6.10
2022-10-14T00:37:36.291Z,6.30
2022-10-14T00:40:06.718Z,5.73
2022-10-14T00:42:38.829Z,7.10
2022-10-14T00:45:13.956Z,6.90
2022-10-14T00:47:46.273Z,7.23
2022-10-14T00:50:17.888Z,5.80
2022-10-14T00:52:49.626Z,6.13
2022-10-14T00:55:20.478Z,6.50
2022-10-14T00:57:49.856Z,6.97
2022-10-14T01:00:21.797Z,6.67
2022-10-14T01:02:53.477Z,6.00
2022-10-14T01:05:25.031Z,6.80
2022-10-14T01:08:04.903Z,6.37
2022-10-14T01:10:42.532Z,6.77
2022-10-14T01:13:22.491Z,5.93
2022-10-14T01:16:02.640Z,6.47
2022-10-14T01:18:49.914Z,6.73
2022-10-14T01:21:26.579Z,6.90
2022-10-14T01:24:29.166Z,7.03
2022-10-14T01:27:25.085Z,7.80
2022-10-14T01:30:14.067Z,7.37
2022-10-14T01:32:57.268Z,8.60
2022-10-14T01:35:37.147Z,8.77
2022-10-14T01:38:15.327Z,8.43
2022-10-14T01:40:52.526Z,8.20
2022-10-14T01:43:25.012Z,7.53
2022-10-14T01:45:58.691Z,8.40
2022-10-14T01:48:32.991Z,7.20
2022-10-14T01:51:07.130Z,8.97
2022-10-14T01:53:43.182Z,6.83
2022-10-14T01:56:15.798Z,6.90
2022-10-14T01:58:47.199Z,7.53
2022-10-14T02:01:21.377Z,7.50
2022-10-14T02:03:50.720Z,7.00
2022-10-14T02:06:24.936Z,7.33
2022-10-14T02:09:13.008Z,6.57
2022-10-14T02:11:52.759Z,6.60
2022-10-14T02:14:34.114Z,7.10
2022-10-14T02:17:11.445Z,6.57
2022-10-14T02:19:46.674Z,6.17
2022-10-14T02:22:22.579Z,6.00
2022-10-14T02:25:20.348Z,5.77
2022-10-14T02:27:52.704Z,5.37
2022-10-14T02:30:23.657Z,5.20
2022-10-14T02:33:01.867Z,4.90
2022-10-14T02:35:33.602Z,5.87
2022-10-14T02:38:08.744Z,5.27
2022-10-14T02:40:42.269Z,5.10
2022-10-14T02:43:13.233Z,6.13
2022-10-14T02:45:44.684Z,6.10
2022-10-14T02:48:16.393Z,6.70
2022-10-14T02:50:46.236Z,6.00
2022-10-14T02:53:19.607Z,6.60
2022-10-14T02:55:51.067Z,5.90
2022-10-14T02:58:20.623Z,6.07
2022-10-14T03:00:51.492Z,6.03
2022-10-14T03:03:23.464Z,5.30
2022-10-14T03:05:53.126Z,6.10
2022-10-14T03:08:23.380Z,6.13
2022-10-14T03:10:52.973Z,6.30
2022-10-14T03:13:23.118Z,5.87
2022-10-14T03:15:53.538Z,5.47
2022-10-14T03:18:25.030Z,5.77
2022-10-14T03:20:59.841Z,6.27
2022-10-14T03:23:36.623Z,6.70
2022-10-14T03:26:11.802Z,6.67
2022-10-14T03:28:46.100Z,6.50
2022-10-14T03:31:21.066Z,6.33
2022-10-14T03:34:04.006Z,5.83
2022-10-14T03:36:34.349Z,7.23
2022-10-14T03:39:03.919Z,6.33
2022-10-14T03:41:51.761Z,6.20
2022-10-14T03:44:25.272Z,6.17
2022-10-14T03:47:19.980Z,5.60
2022-10-14T03:49:52.139Z,5.00
2022-10-14T03:52:37.052Z,5.30
2022-10-14T03:55:11.253Z,5.30
2022-10-14T03:57:44.707Z,4.90
2022-10-14T04:00:15.760Z,5.47
2022-10-14T04:02:45.468Z,5.27
2022-10-14T04:05:44.456Z,5.60
2022-10-14T04:08:18.749Z,5.73
2022-10-14T04:11:07.068Z,6.20
2022-10-14T04:13:39.993Z,5.60
2022-10-14T04:16:12.775Z,5.80
2022-10-14T04:19:12.017Z,5.83
2022-10-14T04:21:45.560Z,5.67
2022-10-14T04:24:15.025Z,6.23
2022-10-14T04:26:51.344Z,5.77
2022-10-14T04:29:31.998Z,6.47
2022-10-14T04:32:07.307Z,6.37
2022-10-14T04:34:38.431Z,5.40
2022-10-14T04:37:11.778Z,5.13
2022-10-14T04:39:54.655Z,6.50
2022-10-14T04:42:25.014Z,6.20
2022-10-14T04:44:59.120Z,5.93
2022-10-14T04:47:44.955Z,5.97
2022-10-14T04:50:18.897Z,5.87
2022-10-14T04:53:13.491Z,5.30
2022-10-14T04:55:55.412Z,5.77
2022-10-14T04:58:26.886Z,6.20
2022-10-14T05:00:57.425Z,6.57
2022-10-14T05:03:34.441Z,7.10
2022-10-14T05:06:03.971Z,6.77
2022-10-14T05:08:35.283Z,6.83
2022-10-14T05:11:04.844Z,7.00
2022-10-14T05:13:46.202Z,7.37
2022-10-14T05:16:18.649Z,6.83
2022-10-14T05:18:48.337Z,7.37
2022-10-14T05:21:17.849Z,6.50
2022-10-14T05:23:59.392Z,5.57
2022-10-14T05:26:31.853Z,5.50
2022-10-14T05:29:04.246Z,5.80
2022-10-14T05:31:33.662Z,5.73
2022-10-14T05:34:11.085Z,7.10
2022-10-14T05:36:40.825Z,7.40
2022-10-14T05:39:12.279Z,6.57
2022-10-14T05:41:42.422Z,6.53
2022-10-14T05:44:13.301Z,6.40
2022-10-14T05:46:42.954Z,6.30
2022-10-14T05:49:12.753Z,6.93
2022-10-14T05:51:43.910Z,6.50
2022-10-14T05:54:21.711Z,6.60
2022-10-14T05:56:54.605Z,4.63
2022-10-14T05:59:25.059Z,5.70
2022-10-14T06:01:54.734Z,4.33
2022-10-14T06:04:26.474Z,4.80
2022-10-14T06:06:56.010Z,5.33
2022-10-14T06:09:27.528Z,5.20
2022-10-14T06:11:56.925Z,5.20
2022-10-14T06:14:26.957Z,5.20
2022-10-14T06:16:56.591Z,6.40
2022-10-14T06:19:27.043Z,5.93
2022-10-14T06:21:56.275Z,5.50
2022-10-14T06:24:27.455Z,5.93
2022-10-14T06:26:57.148Z,5.03
2022-10-14T06:29:31.573Z,5.50
2022-10-14T06:32:00.949Z,7.10
2022-10-14T06:34:30.357Z,5.97
2022-10-14T06:37:02.219Z,5.60
2022-10-14T06:39:33.557Z,5.30
2022-10-14T06:42:04.408Z,5.40
2022-10-14T06:44:33.854Z,5.80
2022-10-14T06:47:03.227Z,5.63
2022-10-14T06:49:32.570Z,5.47
2022-10-14T06:52:02.067Z,5.90
2022-10-14T06:54:38.173Z,5.30
2022-10-14T06:57:08.954Z,7.20
2022-10-14T06:59:39.544Z,5.63
2022-10-14T07:02:09.135Z,4.20
2022-10-14T07:04:40.713Z,4.77
2022-10-14T07:07:11.162Z,5.67
2022-10-14T07:09:42.366Z,5.80
2022-10-14T07:12:11.988Z,27.20
2022-10-14T07:14:41.207Z,16.73
2022-10-14T07:17:11.065Z,15.90
2022-10-14T07:19:40.906Z,8.90
2022-10-14T07:22:10.309Z,6.80
2022-10-14T07:24:41.052Z,5.40
2022-10-14T07:27:10.830Z,4.40
2022-10-14T07:29:40.493Z,4.73
2022-10-14T07:32:09.694Z,3.97
2022-10-14T07:34:39.046Z,4.30
2022-10-14T07:37:08.409Z,4.37
2022-10-14T07:39:37.669Z,8.90
2022-10-14T07:42:08.108Z,4.67
2022-10-14T07:44:40.448Z,4.63
2022-10-14T07:47:10.031Z,5.10
2022-10-14T07:49:39.453Z,4.33
2022-10-14T07:52:09.036Z,4.40
2022-10-14T07:54:38.258Z,5.20
2022-10-14T07:57:09.209Z,4.67
2022-10-14T07:59:38.693Z,4.60
2022-10-14T08:02:07.995Z,4.20
2022-10-14T08:04:37.552Z,5.03
2022-10-14T08:07:09.200Z,5.60
2022-10-14T08:09:38.462Z,4.30
2022-10-14T08:12:09.894Z,4.60
2022-10-14T08:14:39.228Z,5.67
2022-10-14T08:17:08.704Z,4.40
2022-10-14T08:19:38.839Z,4.67
2022-10-14T08:22:07.924Z,4.73
2022-10-14T08:24:37.584Z,4.77
2022-10-14T08:27:08.561Z,4.60
2022-10-14T08:29:39.627Z,5.80
2022-10-14T08:32:09.007Z,5.10
2022-10-14T08:34:38.322Z,5.47
2022-10-14T08:37:07.517Z,5.70
2022-10-14T08:39:37.228Z,5.70
2022-10-14T08:42:29.779Z,5.90
2022-10-14T08:45:09.361Z,5.80
2022-10-14T08:47:42.124Z,6.00
2022-10-14T08:50:24.340Z,7.20
2022-10-14T08:52:57.371Z,4.90
2022-10-14T08:55:34.509Z,5.20
2022-10-14T08:58:11.402Z,4.37
2022-10-14T09:00:44.540Z,5.43
2022-10-14T09:03:20.015Z,5.00
2022-10-14T09:05:57.857Z,6.40
2022-10-14T09:08:34.022Z,6.40
2022-10-14T09:11:06.591Z,6.10
2022-10-14T09:13:39.508Z,5.50
2022-10-14T09:16:17.630Z,9.10
2022-10-14T09:18:54.598Z,9.13
2022-10-14T09:24:23.170Z,4.27
2022-10-14T09:26:54.681Z,5.00
2022-10-14T09:29:28.275Z,4.67
2022-10-14T09:32:03.725Z,4.47
2022-10-14T09:34:37.054Z,4.13
2022-10-14T09:37:24.771Z,4.87
2022-10-14T09:40:00.214Z,7.27
2022-10-14T09:42:37.931Z,4.60
2022-10-14T09:45:13.239Z,7.83
2022-10-14T09:47:50.683Z,6.60
2022-10-14T09:50:29.091Z,6.70
2022-10-14T09:53:03.456Z,4.30
2022-10-14T09:55:34.382Z,4.33
2022-10-14T09:58:17.314Z,5.20
2022-10-14T10:00:47.971Z,4.63
2022-10-14T10:03:29.918Z,4.40
2022-10-14T10:06:04.010Z,8.03
2022-10-14T10:08:36.452Z,3.70
2022-10-14T10:11:09.233Z,5.23
2022-10-14T10:13:45.623Z,4.40
2022-10-14T10:16:27.421Z,4.63
2022-10-14T10:19:03.682Z,5.00
2022-10-14T10:21:33.173Z,4.90
2022-10-14T10:24:04.214Z,4.77
2022-10-14T10:26:34.942Z,5.80
2022-10-14T10:29:07.059Z,7.90
2022-10-14T10:32:03.801Z,4.63
2022-10-14T10:35:03.252Z,6.33
2022-10-14T10:37:34.720Z,5.10
2022-10-14T10:40:27.056Z,6.13
2022-10-14T10:43:12.844Z,12.27
2022-10-14T10:45:52.052Z,7.70
2022-10-14T10:48:28.267Z,9.07
2022-10-14T10:51:04.597Z,8.53
2022-10-14T10:54:05.378Z,9.47
2022-10-14T10:56:42.396Z,12.50
2022-10-14T10:59:38.773Z,9.33
2022-10-14T11:02:45.272Z,10.33
2022-10-14T11:05:20.000Z,11.70
2022-10-14T11:08:14.628Z,10.67
2022-10-14T11:11:06.665Z,13.60
2022-10-14T11:13:48.588Z,14.00
2022-10-14T11:16:29.143Z,12.70
2022-10-14T11:19:08.640Z,12.73
2022-10-14T11:21:47.827Z,14.37
2022-10-14T11:24:29.729Z,13.47
2022-10-14T11:27:11.807Z,16.50
2022-10-14T11:30:06.496Z,13.17
2022-10-14T11:32:48.017Z,12.37
2022-10-14T11:35:26.968Z,11.63
2022-10-14T11:38:11.300Z,11.27
2022-10-14T11:40:50.083Z,12.07
2022-10-14T11:43:28.052Z,11.37
2022-10-14T11:46:01.382Z,11.70
2022-10-14T11:48:39.206Z,12.37
2022-10-14T11:51:14.301Z,12.47
2022-10-14T11:53:54.199Z,11.83
2022-10-14T11:56:44.481Z,11.20
2022-10-14T11:59:23.398Z,11.80
2022-10-14T12:01:59.765Z,11.27
2022-10-14T12:04:34.656Z,11.97
2022-10-14T12:07:10.632Z,12.30
2022-10-14T12:09:44.547Z,11.87
2022-10-14T12:12:19.629Z,12.27
2022-10-14T12:14:52.636Z,12.00
2022-10-14T12:17:26.433Z,11.17
2022-10-14T12:19:58.647Z,11.37
2022-10-14T12:22:33.328Z,10.57
2022-10-14T12:25:07.875Z,11.13
2022-10-14T12:27:39.507Z,10.73
2022-10-14T12:30:34.065Z,10.40
2022-10-14T12:33:06.066Z,11.57
2022-10-14T12:35:59.824Z,10.00
2022-10-14T12:38:31.083Z,10.93
2022-10-14T12:41:34.829Z,11.03
2022-10-14T12:44:13.524Z,11.70
2022-10-14T12:46:46.233Z,10.90
2022-10-14T12:49:21.883Z,12.33
2022-10-14T12:51:58.985Z,11.43
2022-10-14T12:54:32.276Z,12.00
2022-10-14T12:57:06.588Z,11.17
2022-10-14T12:59:40.980Z,12.20
2022-10-14T13:02:22.756Z,12.67
2022-10-14T13:04:55.256Z,10.60
2022-10-14T13:07:41.204Z,10.30
2022-10-14T13:10:47.363Z,10.90
2022-10-14T13:13:55.722Z,12.60
2022-10-14T13:17:07.788Z,9.70
2022-10-14T13:19:55.196Z,10.90
2022-10-14T13:22:44.800Z,11.57
2022-10-14T13:25:25.969Z,10.40
2022-10-14T13:28:20.011Z,9.30
2022-10-14T13:31:04.380Z,9.80
2022-10-14T13:33:40.193Z,8.83
2022-10-14T13:36:22.339Z,9.10
2022-10-14T13:38:58.056Z,10.70
2022-10-14T13:41:31.543Z,10.87
2022-10-14T13:44:02.488Z,10.60
2022-10-14T13:46:36.982Z,9.43
2022-10-14T13:49:17.151Z,9.50
2022-10-14T13:51:52.747Z,10.53
2022-10-14T13:54:23.751Z,10.80
2022-10-14T13:57:29.005Z,10.60
2022-10-14T14:00:38.118Z,10.07
2022-10-14T14:02:51.456Z,10.77
2022-10-14T14:08:38.837Z,9.87
2022-10-14T14:11:17.264Z,8.90
2022-10-14T14:14:00.761Z,10.20
2022-10-14T14:16:37.244Z,7.90
2022-10-14T14:19:09.554Z,8.30
2022-10-14T14:21:39.789Z,9.10
2022-10-14T14:24:19.601Z,9.00
2022-10-14T14:26:57.798Z,9.97
2022-10-14T14:29:32.627Z,12.10
2022-10-14T14:32:07.980Z,10.60
2022-10-14T14:34:40.432Z,9.53
2022-10-14T14:37:43.872Z,8.90
2022-10-14T14:40:16.328Z,11.33
2022-10-14T14:42:47.619Z,9.67
2022-10-14T14:45:20.865Z,11.07
2022-10-14T14:47:55.180Z,10.03
2022-10-14T14:50:31.798Z,11.50
2022-10-14T14:53:06.419Z,11.83
2022-10-14T14:55:44.121Z,10.13
2022-10-14T14:58:25.463Z,10.30
2022-10-14T15:00:55.996Z,10.20
2022-10-14T15:03:27.544Z,9.90
2022-10-14T15:06:01.383Z,9.27
2022-10-14T15:08:33.399Z,9.67
2022-10-14T15:11:05.337Z,10.30
2022-10-14T15:13:49.197Z,9.83
2022-10-14T15:16:43.321Z,11.90
2022-10-14T15:19:16.364Z,9.70
2022-10-14T15:21:50.598Z,8.77
2022-10-14T15:24:20.656Z,10.13
2022-10-14T15:26:53.526Z,9.90
2022-10-14T15:29:25.627Z,8.77
2022-10-14T15:32:11.029Z,7.63
2022-10-14T15:34:41.980Z,9.33
2022-10-14T15:37:15.030Z,9.97
2022-10-14T15:39:45.072Z,9.63
2022-10-14T15:42:19.718Z,7.93
2022-10-14T15:44:49.703Z,8.40
2022-10-14T15:47:22.393Z,7.77
2022-10-14T15:49:52.296Z,9.63
2022-10-14T15:52:24.503Z,9.03
2022-10-14T15:54:59.454Z,8.97
2022-10-14T15:57:30.728Z,8.90
2022-10-14T16:00:00.131Z,10.60
2022-10-14T16:02:35.483Z,8.97
2022-10-14T16:05:21.090Z,10.10
2022-10-14T16:07:51.531Z,10.20
2022-10-14T16:10:29.242Z,9.90
2022-10-14T16:13:03.702Z,8.73
2022-10-14T16:15:39.504Z,8.70
2022-10-14T16:18:09.006Z,9.80
2022-10-14T16:20:38.265Z,9.17
2022-10-14T16:25:56.417Z,7.30
2022-10-14T16:28:27.765Z,6.50
2022-10-14T16:30:56.815Z,7.20
2022-10-14T16:33:26.410Z,7.83
2022-10-14T16:38:47.923Z,8.40
2022-10-14T16:41:18.433Z,9.13
2022-10-14T16:43:50.265Z,10.47
2022-10-14T16:46:19.890Z,7.63
2022-10-14T16:48:49.962Z,9.47
2022-10-14T16:53:52.519Z,9.10
2022-10-14T16:56:40.330Z,8.03
2022-10-14T16:59:13.946Z,7.53
2022-10-14T17:01:43.118Z,7.60
2022-10-14T17:04:15.364Z,8.00
2022-10-14T17:06:45.202Z,10.77
2022-10-14T17:09:18.013Z,10.23
2022-10-14T17:11:48.241Z,9.80
2022-10-14T17:14:24.489Z,11.40
2022-10-14T17:16:54.096Z,10.90
2022-10-14T17:19:24.096Z,8.73
2022-10-14T17:21:53.557Z,10.30
2022-10-14T17:24:23.542Z,8.97
2022-10-14T17:26:53.091Z,10.83
2022-10-14T17:29:24.710Z,10.00
2022-10-14T17:31:56.838Z,12.27
2022-10-14T17:34:28.896Z,10.10
2022-10-14T17:37:01.686Z,10.13
2022-10-14T17:39:34.549Z,12.93
2022-10-14T17:42:04.502Z,14.57
2022-10-14T17:44:37.079Z,9.83
2022-10-14T17:47:08.910Z,9.00
2022-10-14T17:49:38.288Z,10.20
2022-10-14T17:52:07.954Z,11.37
2022-10-14T17:54:37.488Z,11.90
2022-10-14T17:57:07.147Z,10.20
2022-10-14T17:59:38.448Z,13.93
2022-10-14T18:02:10.276Z,16.03
2022-10-14T18:04:39.953Z,14.03
2022-10-14T18:07:09.561Z,15.50
2022-10-14T18:09:40.149Z,13.30
2022-10-14T18:12:10.495Z,13.20
2022-10-14T18:14:42.584Z,12.17
2022-10-14T18:17:13.269Z,13.33
2022-10-14T18:19:47.190Z,12.87
2022-10-14T18:22:19.498Z,19.03
2022-10-14T18:24:49.704Z,15.30
2022-10-14T18:27:19.128Z,13.77
2022-10-14T18:29:50.266Z,12.67
2022-10-14T18:32:20.240Z,14.50
2022-10-14T18:34:49.949Z,15.63
2022-10-14T18:37:19.395Z,16.23
2022-10-14T18:39:49.028Z,21.10
2022-10-14T18:42:20.935Z,13.30
2022-10-14T18:44:55.230Z,15.93
2022-10-14T18:47:25.164Z,15.60
2022-10-14T18:49:54.763Z,18.17
2022-10-14T18:52:24.785Z,16.03
2022-10-14T18:54:54.947Z,14.33
2022-10-14T18:57:24.928Z,15.40
2022-10-14T18:59:56.048Z,14.23
2022-10-14T19:02:25.340Z,12.80
2022-10-14T19:04:56.352Z,13.57
2022-10-14T19:07:26.096Z,11.03
2022-10-14T19:09:57.795Z,12.97
2022-10-14T19:12:45.815Z,13.77
2022-10-14T19:15:18.363Z,13.73
2022-10-14T19:17:52.213Z,12.13
2022-10-14T19:20:23.566Z,12.43
2022-10-14T19:22:56.698Z,11.50
2022-10-14T19:25:26.420Z,12.80
2022-10-14T19:27:56.017Z,11.70
2022-10-14T19:30:27.327Z,12.20
2022-10-14T19:32:56.532Z,13.60
2022-10-14T19:35:26.074Z,14.93
2022-10-14T19:37:55.662Z,13.77
2022-10-14T19:40:25.026Z,13.53
2022-10-14T19:42:54.449Z,11.30
2022-10-14T19:45:23.909Z,12.43
2022-10-14T19:47:57.225Z,13.20
2022-10-14T19:50:27.238Z,13.83
2022-10-14T19:52:56.956Z,11.50
2022-10-14T19:55:26.137Z,13.07
2022-10-14T19:57:57.896Z,13.13
2022-10-14T20:00:27.449Z,14.10
2022-10-14T20:02:58.429Z,14.37
2022-10-14T20:05:29.230Z,12.27
2022-10-14T20:07:59.081Z,12.70
2022-10-14T20:10:28.494Z,13.50
2022-10-14T20:12:57.878Z,12.03
2022-10-14T20:15:27.283Z,14.70
2022-10-14T20:17:57.988Z,12.23
2022-10-14T20:20:27.461Z,14.17
2022-10-14T20:22:56.610Z,13.80
2022-10-14T20:25:25.978Z,13.10
2022-10-14T20:27:55.382Z,13.93
2022-10-14T20:30:24.426Z,13.87
2022-10-14T20:32:55.009Z,14.97
2022-10-14T20:35:26.273Z,13.50
2022-10-14T20:37:56.170Z,14.50
2022-10-14T20:40:25.653Z,15.67
2022-10-14T20:42:54.812Z,14.67
2022-10-14T20:45:24.204Z,21.53
2022-10-14T20:47:55.104Z,14.30
2022-10-14T20:50:28.341Z,15.70
2022-10-14T20:52:57.544Z,12.73
2022-10-14T20:55:26.473Z,14.90
2022-10-14T20:57:56.902Z,16.80
2022-10-14T21:00:26.289Z,17.50
2022-10-14T21:02:55.909Z,14.50
2022-10-14T21:05:27.543Z,18.50
2022-10-14T21:07:57.307Z,16.07
2022-10-14T21:10:26.309Z,20.60
2022-10-14T21:12:56.050Z,16.03
2022-10-14T21:15:27.152Z,18.90
2022-10-14T21:17:57.202Z,21.03
2022-10-14T21:20:28.443Z,17.43
2022-10-14T21:22:58.546Z,16.97
2022-10-14T21:25:28.139Z,16.57
2022-10-14T21:27:57.257Z,16.30
2022-10-14T21:30:26.645Z,18.57
2022-10-14T21:32:56.838Z,23.57
2022-10-14T21:35:28.442Z,20.70
2022-10-14T21:37:57.988Z,19.17
2022-10-14T21:40:27.430Z,20.40
2022-10-14T21:42:56.850Z,23.50
2022-10-14T21:45:26.460Z,24.10
2022-10-14T21:47:55.887Z,21.60
2022-10-14T21:50:29.095Z,22.37
2022-10-14T21:52:58.782Z,23.30
2022-10-14T21:55:28.658Z,21.53
2022-10-14T21:57:59.790Z,23.20
2022-10-14T22:00:29.562Z,20.87
2022-10-14T22:02:58.708Z,30.63
2022-10-14T22:05:29.629Z,20.70
2022-10-14T22:07:59.680Z,19.30
2022-10-14T22:10:47.625Z,19.23
2022-10-14T22:13:17.214Z,19.60
2022-10-14T22:15:46.500Z,18.90
2022-10-14T22:18:17.869Z,19.37
2022-10-14T22:20:51.578Z,17.27
2022-10-14T22:23:21.365Z,18.73
2022-10-14T22:25:50.677Z,21.00
2022-10-14T22:28:20.582Z,18.97
2022-10-14T22:30:52.082Z,18.37
2022-10-14T22:33:21.421Z,26.07
2022-10-14T22:35:52.607Z,24.73
2022-10-14T22:38:22.092Z,21.00
2022-10-14T22:40:51.050Z,26.40
2022-10-14T22:43:20.483Z,20.50
2022-10-14T22:45:49.932Z,19.97
2022-10-14T22:48:19.377Z,20.37
2022-10-14T22:50:50.992Z,18.93
2022-10-14T22:53:22.976Z,27.40
2022-10-14T22:55:56.303Z,26.97
2022-10-14T22:58:25.885Z,19.80
2022-10-14T23:00:55.659Z,20.77
2022-10-14T23:03:25.819Z,20.70
2022-10-14T23:05:55.330Z,21.23
2022-10-14T23:08:26.322Z,21.00
2022-10-14T23:10:55.657Z,22.20
2022-10-14T23:13:24.679Z,21.37
2022-10-14T23:15:57.857Z,20.60
2022-10-14T23:18:28.359Z,19.10
2022-10-14T23:20:58.521Z,22.00
2022-10-14T23:23:29.650Z,21.43
2022-10-14T23:25:59.166Z,19.67
2022-10-14T23:28:28.587Z,20.50
2022-10-14T23:30:58.379Z,23.23
2022-10-14T23:33:28.336Z,20.90
2022-10-14T23:35:57.680Z,20.90
2022-10-14T23:38:27.461Z,21.07
2022-10-14T23:41:00.298Z,20.00
2022-10-14T23:43:32.135Z,21.37
2022-10-14T23:46:02.050Z,21.67
2022-10-14T23:48:31.941Z,23.30
2022-10-14T23:51:04.101Z,22.80
2022-10-14T23:53:34.232Z,23.57
2022-10-14T23:56:07.329Z,23.50
2022-10-14T23:58:36.924Z,23.53
